createdAt,value
2019-02-18T00:02:19.921Z,7.57
2019-02-18T00:04:48.208Z,7.17
2019-02-18T00:07:16.501Z,7.37
2019-02-18T00:09:44.775Z,6.27
2019-02-18T00:12:13.074Z,8.10
2019-02-18T00:14:41.345Z,7.57
2019-02-18T00:17:09.714Z,8.87
2019-02-18T00:19:37.990Z,9.60
2019-02-18T00:22:06.281Z,9.90
2019-02-18T00:24:34.860Z,7.90
2019-02-18T00:27:03.171Z,7.57
2019-02-18T00:29:31.430Z,7.17
2019-02-18T00:31:59.738Z,9.07
2019-02-18T00:34:28.002Z,8.73
2019-02-18T00:36:56.297Z,10.97
2019-02-18T00:39:24.589Z,14.33
2019-02-18T00:41:52.907Z,9.00
2019-02-18T00:44:22.823Z,11.87
2019-02-18T00:46:51.089Z,7.83
2019-02-18T00:49:19.364Z,7.63
2019-02-18T00:51:47.709Z,7.13
2019-02-18T00:54:16.014Z,8.53
2019-02-18T00:56:44.291Z,9.67
2019-02-18T00:59:12.592Z,12.20
2019-02-18T01:01:40.880Z,8.47
2019-02-18T01:04:09.177Z,9.67
2019-02-18T01:06:41.127Z,8.97
2019-02-18T01:09:09.422Z,11.43
2019-02-18T01:11:37.701Z,8.97
2019-02-18T01:14:05.997Z,9.13
2019-02-18T01:16:34.277Z,8.07
2019-02-18T01:19:02.879Z,6.90
2019-02-18T01:21:31.160Z,7.60
2019-02-18T01:23:59.457Z,9.83
2019-02-18T01:26:27.731Z,7.80
2019-02-18T01:28:56.293Z,7.33
2019-02-18T01:31:24.876Z,7.03
2019-02-18T01:33:53.175Z,9.47
2019-02-18T01:36:23.082Z,8.60
2019-02-18T01:38:51.600Z,10.00
2019-02-18T01:41:19.888Z,7.33
2019-02-18T01:43:48.192Z,6.73
2019-02-18T01:46:16.469Z,6.67
2019-02-18T01:48:44.746Z,6.77
2019-02-18T01:51:13.038Z,6.90
2019-02-18T01:53:41.325Z,7.27
2019-02-18T01:56:09.621Z,8.40
2019-02-18T01:58:38.179Z,7.63
2019-02-18T02:01:06.761Z,9.70
2019-02-18T02:03:35.032Z,7.40
2019-02-18T02:06:03.329Z,7.20
2019-02-18T02:08:31.607Z,7.60
2019-02-18T02:10:59.897Z,8.57
2019-02-18T02:13:33.691Z,11.73
2019-02-18T02:16:03.128Z,6.50
2019-02-18T02:18:31.400Z,6.23
2019-02-18T02:20:59.713Z,6.87
2019-02-18T02:23:28.055Z,7.47
2019-02-18T02:25:56.327Z,7.00
2019-02-18T02:28:24.688Z,7.23
2019-02-18T02:30:52.981Z,7.00
2019-02-18T02:33:21.274Z,6.40
2019-02-18T02:35:49.574Z,9.77
2019-02-18T02:38:17.842Z,7.97
2019-02-18T02:40:46.112Z,9.90
2019-02-18T02:43:14.407Z,8.63
2019-02-18T02:45:42.931Z,8.40
2019-02-18T02:48:11.218Z,7.10
2019-02-18T02:50:39.498Z,9.60
2019-02-18T02:53:07.806Z,7.00
2019-02-18T02:55:36.082Z,6.33
2019-02-18T02:58:04.376Z,9.43
2019-02-18T03:00:32.964Z,5.77
2019-02-18T03:03:01.252Z,6.33
2019-02-18T03:05:29.530Z,8.27
2019-02-18T03:07:57.852Z,11.10
2019-02-18T03:10:26.128Z,7.47
2019-02-18T03:12:54.409Z,8.67
2019-02-18T03:15:22.697Z,7.43
2019-02-18T03:17:50.972Z,8.07
2019-02-18T03:20:19.270Z,7.30
2019-02-18T03:22:47.549Z,6.37
2019-02-18T03:25:23.712Z,7.90
2019-02-18T03:28:04.479Z,9.70
2019-02-18T03:30:51.542Z,6.80
2019-02-18T03:33:43.947Z,8.83
2019-02-18T03:36:12.239Z,5.60
2019-02-18T03:38:40.512Z,8.37
2019-02-18T03:41:09.105Z,6.93
2019-02-18T03:43:37.453Z,6.73
2019-02-18T03:46:05.817Z,5.77
2019-02-18T03:48:34.081Z,9.60
2019-02-18T03:51:02.378Z,9.10
2019-02-18T03:53:30.674Z,8.07
2019-02-18T03:55:58.966Z,6.33
2019-02-18T03:58:27.253Z,7.07
2019-02-18T04:00:55.819Z,7.40
2019-02-18T04:03:24.170Z,8.17
2019-02-18T04:05:52.463Z,8.77
2019-02-18T04:08:20.743Z,8.27
2019-02-18T04:10:49.323Z,5.77
2019-02-18T04:13:17.600Z,6.97
2019-02-18T04:15:45.896Z,7.83
2019-02-18T04:18:14.244Z,8.43
2019-02-18T04:20:42.527Z,7.70
2019-02-18T04:23:10.822Z,6.10
2019-02-18T04:25:39.100Z,7.17
2019-02-18T04:28:07.399Z,6.30
2019-02-18T04:30:35.678Z,5.60
2019-02-18T04:33:03.980Z,7.50
2019-02-18T04:35:32.267Z,5.90
2019-02-18T04:38:00.574Z,5.90
2019-02-18T04:40:28.838Z,6.47
2019-02-18T04:42:57.129Z,6.53
2019-02-18T04:45:25.409Z,6.70
2019-02-18T04:47:53.709Z,10.13
2019-02-18T04:50:21.982Z,6.33
2019-02-18T04:52:50.531Z,7.77
2019-02-18T04:55:18.808Z,6.83
2019-02-18T04:57:47.096Z,8.00
2019-02-18T05:00:15.368Z,7.27
2019-02-18T05:02:43.685Z,6.40
2019-02-18T05:05:11.960Z,9.07
2019-02-18T05:07:40.248Z,6.63
2019-02-18T05:10:10.715Z,6.17
2019-02-18T05:12:39.079Z,7.10
2019-02-18T05:15:08.607Z,7.30
2019-02-18T05:17:36.900Z,8.20
2019-02-18T05:20:06.922Z,7.80
2019-02-18T05:22:35.209Z,6.53
2019-02-18T05:25:04.554Z,7.27
2019-02-18T05:27:33.640Z,6.20
2019-02-18T05:30:02.088Z,6.67
2019-02-18T05:32:30.375Z,9.83
2019-02-18T05:34:58.926Z,7.67
2019-02-18T05:37:27.216Z,7.37
2019-02-18T05:39:55.653Z,5.40
2019-02-18T05:42:23.865Z,7.33
2019-02-18T05:44:52.140Z,7.07
2019-02-18T05:47:20.447Z,7.50
2019-02-18T05:49:48.730Z,6.53
2019-02-18T05:52:17.012Z,6.67
2019-02-18T05:54:45.302Z,8.20
2019-02-18T05:57:13.579Z,7.93
2019-02-18T05:59:41.877Z,9.13
2019-02-18T06:02:10.155Z,6.00
2019-02-18T06:04:38.763Z,6.37
2019-02-18T06:07:07.116Z,7.40
2019-02-18T06:09:35.413Z,6.90
2019-02-18T06:12:03.688Z,7.93
2019-02-18T06:14:31.982Z,10.37
2019-02-18T06:17:02.669Z,14.37
2019-02-18T06:19:30.655Z,10.23
2019-02-18T06:21:59.363Z,12.60
2019-02-18T06:24:27.656Z,12.17
2019-02-18T06:26:55.936Z,9.43
2019-02-18T06:29:24.478Z,9.50
2019-02-18T06:31:52.790Z,10.37
2019-02-18T06:34:21.057Z,8.27
2019-02-18T06:36:49.359Z,11.37
2019-02-18T06:39:17.650Z,18.13
2019-02-18T06:41:46.285Z,14.17
2019-02-18T06:44:14.964Z,18.57
2019-02-18T06:46:44.906Z,17.50
2019-02-18T06:49:15.068Z,12.93
2019-02-18T06:51:43.677Z,26.17
2019-02-18T06:54:11.975Z,14.33
2019-02-18T06:56:42.279Z,19.50
2019-02-18T06:59:12.213Z,15.57
2019-02-18T07:01:44.977Z,14.67
2019-02-18T07:04:21.123Z,13.10
2019-02-18T07:06:53.499Z,13.37
2019-02-18T07:09:26.378Z,13.27
2019-02-18T07:11:56.318Z,9.83
2019-02-18T07:14:24.944Z,9.33
2019-02-18T07:16:53.239Z,13.27
2019-02-18T07:19:21.520Z,9.37
2019-02-18T07:21:49.808Z,7.93
2019-02-18T07:24:18.088Z,7.57
2019-02-18T07:26:46.380Z,12.07
2019-02-18T07:29:14.669Z,11.80
2019-02-18T07:31:42.961Z,7.77
2019-02-18T07:34:11.250Z,10.33
2019-02-18T07:36:39.609Z,7.90
2019-02-18T07:39:09.686Z,6.40
2019-02-18T07:41:37.966Z,7.73
2019-02-18T07:44:06.561Z,9.93
2019-02-18T07:46:34.840Z,7.57
2019-02-18T07:49:03.445Z,9.47
2019-02-18T07:51:31.784Z,7.77
2019-02-18T07:54:00.395Z,8.10
2019-02-18T07:56:28.673Z,6.97
2019-02-18T07:59:02.040Z,9.17
2019-02-18T08:01:30.322Z,8.90
2019-02-18T08:03:58.863Z,8.97
2019-02-18T08:06:27.158Z,13.07
2019-02-18T08:08:55.455Z,11.27
2019-02-18T08:11:23.732Z,8.93
2019-02-18T08:13:52.036Z,8.80
2019-02-18T08:16:20.306Z,9.13
2019-02-18T08:18:48.595Z,8.73
2019-02-18T08:21:16.873Z,10.57
2019-02-18T08:23:45.468Z,8.57
2019-02-18T08:26:13.754Z,7.07
2019-02-18T08:28:42.302Z,9.13
2019-02-18T08:31:10.580Z,9.80
2019-02-18T08:33:38.882Z,13.03
2019-02-18T08:36:07.153Z,8.70
2019-02-18T08:38:36.228Z,9.93
2019-02-18T08:41:04.578Z,8.47
2019-02-18T08:43:32.849Z,9.77
2019-02-18T08:46:01.140Z,13.47
2019-02-18T08:48:29.440Z,9.97
2019-02-18T08:50:57.742Z,11.37
2019-02-18T08:53:26.272Z,9.63
2019-02-18T08:55:54.568Z,9.57
2019-02-18T08:58:22.842Z,10.60
2019-02-18T09:00:51.131Z,8.63
2019-02-18T09:03:19.407Z,11.37
2019-02-18T09:05:47.713Z,11.70
2019-02-18T09:08:16.255Z,9.67
2019-02-18T09:10:44.821Z,10.43
2019-02-18T09:13:13.110Z,9.63
2019-02-18T09:15:41.804Z,9.97
2019-02-18T09:18:10.089Z,5.80
2019-02-18T09:20:38.670Z,9.90
2019-02-18T09:23:20.407Z,8.77
2019-02-18T09:25:50.894Z,8.03
2019-02-18T09:28:19.175Z,8.30
2019-02-18T09:30:48.629Z,8.37
2019-02-18T09:33:16.924Z,6.97
2019-02-18T09:35:45.202Z,10.37
2019-02-18T09:38:23.825Z,8.50
2019-02-18T09:40:46.090Z,9.10
2019-02-18T09:43:13.534Z,10.37
2019-02-18T09:45:42.135Z,8.57
2019-02-18T09:48:10.497Z,7.73
2019-02-18T09:50:38.776Z,7.30
2019-02-18T09:53:07.078Z,9.03
2019-02-18T09:55:35.357Z,9.87
2019-02-18T09:58:03.647Z,8.50
2019-02-18T10:00:31.923Z,8.50
2019-02-18T10:03:00.217Z,9.30
2019-02-18T10:05:28.502Z,8.40
2019-02-18T10:07:57.112Z,7.07
2019-02-18T10:10:25.393Z,8.33
2019-02-18T10:12:53.972Z,7.97
2019-02-18T10:15:22.254Z,7.50
2019-02-18T10:17:50.543Z,8.30
2019-02-18T10:20:18.823Z,7.97
2019-02-18T10:22:47.093Z,9.53
2019-02-18T10:25:15.461Z,7.67
2019-02-18T10:27:44.045Z,8.57
2019-02-18T10:30:13.348Z,8.00
2019-02-18T10:32:41.630Z,9.73
2019-02-18T10:35:12.047Z,9.90
2019-02-18T10:37:41.192Z,8.33
2019-02-18T10:40:10.432Z,7.77
2019-02-18T10:42:38.782Z,7.70
2019-02-18T10:45:12.187Z,9.27
2019-02-18T10:47:40.809Z,9.63
2019-02-18T10:50:12.488Z,8.27
2019-02-18T10:52:41.043Z,8.43
2019-02-18T10:55:10.784Z,7.50
2019-02-18T10:57:39.404Z,7.30
2019-02-18T11:00:10.825Z,7.67
2019-02-18T11:02:39.362Z,9.03
2019-02-18T11:05:09.104Z,7.07
2019-02-18T11:07:37.403Z,8.07
2019-02-18T11:10:08.844Z,7.17
2019-02-18T11:12:37.143Z,10.80
2019-02-18T11:15:07.262Z,6.63
2019-02-18T11:17:38.895Z,7.03
2019-02-18T11:20:07.609Z,7.20
2019-02-18T11:22:35.897Z,6.37
2019-02-18T11:25:06.312Z,7.60
2019-02-18T11:27:34.611Z,8.47
2019-02-18T11:30:04.073Z,7.40
2019-02-18T11:32:33.304Z,9.03
2019-02-18T11:35:01.636Z,7.07
2019-02-18T11:37:29.966Z,8.13
2019-02-18T11:39:58.566Z,6.17
2019-02-18T11:42:26.864Z,9.43
2019-02-18T11:44:55.424Z,7.83
2019-02-18T11:47:24.319Z,8.90
2019-02-18T11:49:52.612Z,8.03
2019-02-18T11:52:20.890Z,8.47
2019-02-18T11:54:49.479Z,13.23
2019-02-18T11:57:18.036Z,8.13
2019-02-18T11:59:46.338Z,6.53
2019-02-18T12:02:14.901Z,10.00
2019-02-18T12:04:43.198Z,8.07
2019-02-18T12:07:11.483Z,5.83
2019-02-18T12:09:39.790Z,7.10
2019-02-18T12:12:08.068Z,9.43
2019-02-18T12:14:36.358Z,6.03
2019-02-18T12:17:04.965Z,9.23
2019-02-18T12:19:33.451Z,8.33
2019-02-18T12:22:01.730Z,8.60
2019-02-18T12:24:30.315Z,5.90
2019-02-18T12:26:58.597Z,11.17
2019-02-18T12:29:26.973Z,5.33
2019-02-18T12:31:55.553Z,10.23
2019-02-18T12:34:24.079Z,7.37
2019-02-18T12:36:53.039Z,6.33
2019-02-18T12:39:22.745Z,8.63
2019-02-18T12:41:51.526Z,6.63
2019-02-18T12:44:19.811Z,4.97
2019-02-18T12:46:48.118Z,6.93
2019-02-18T12:49:16.398Z,5.50
2019-02-18T12:51:45.078Z,5.40
2019-02-18T12:54:13.627Z,6.00
2019-02-18T12:56:41.921Z,5.83
2019-02-18T12:59:10.268Z,5.57
2019-02-18T13:01:38.639Z,7.50
2019-02-18T13:04:07.269Z,6.80
2019-02-18T13:06:35.941Z,8.37
2019-02-18T13:09:05.695Z,8.13
2019-02-18T13:11:34.625Z,7.13
2019-02-18T13:14:02.935Z,6.27
2019-02-18T13:16:31.214Z,7.50
2019-02-18T13:18:59.515Z,6.47
2019-02-18T13:21:27.789Z,7.60
2019-02-18T13:23:56.519Z,7.47
2019-02-18T13:26:24.877Z,6.70
2019-02-18T13:28:53.665Z,6.00
2019-02-18T13:31:22.273Z,6.07
2019-02-18T13:33:50.573Z,8.73
2019-02-18T13:36:18.934Z,6.93
2019-02-18T13:38:47.237Z,9.57
2019-02-18T13:41:15.514Z,8.93
2019-02-18T13:43:43.801Z,5.97
2019-02-18T13:46:12.672Z,6.43
2019-02-18T13:48:40.955Z,6.00
2019-02-18T13:51:09.253Z,5.97
2019-02-18T13:53:37.529Z,5.43
2019-02-18T13:56:06.982Z,7.23
2019-02-18T13:58:35.279Z,5.53
2019-02-18T14:01:03.951Z,6.40
2019-02-18T14:03:32.530Z,6.73
2019-02-18T14:06:00.899Z,5.90
2019-02-18T14:08:29.493Z,6.20
2019-02-18T14:10:57.793Z,6.23
2019-02-18T14:13:26.367Z,6.73
2019-02-18T14:15:54.675Z,7.23
2019-02-18T14:18:23.233Z,8.93
2019-02-18T14:20:51.510Z,9.47
2019-02-18T14:23:19.814Z,5.73
2019-02-18T14:25:48.098Z,8.40
2019-02-18T14:28:16.723Z,5.60
2019-02-18T14:30:45.014Z,6.40
2019-02-18T14:33:15.245Z,7.03
2019-02-18T14:35:43.529Z,5.80
2019-02-18T14:38:12.191Z,5.97
2019-02-18T14:40:40.469Z,6.97
2019-02-18T14:43:08.772Z,7.13
2019-02-18T14:45:37.059Z,5.77
2019-02-18T14:48:05.423Z,8.57
2019-02-18T14:50:33.779Z,4.23
2019-02-18T14:53:02.056Z,5.23
2019-02-18T14:55:30.426Z,4.90
2019-02-18T14:57:58.706Z,3.90
2019-02-18T15:00:27.011Z,3.70
2019-02-18T15:02:57.417Z,4.37
2019-02-18T15:05:26.932Z,3.77
2019-02-18T15:07:55.626Z,5.87
2019-02-18T15:10:24.068Z,3.37
2019-02-18T15:12:52.346Z,5.03
2019-02-18T15:15:20.894Z,6.50
2019-02-18T15:17:49.189Z,5.37
2019-02-18T15:20:17.856Z,2.80
2019-02-18T15:22:46.226Z,3.40
2019-02-18T15:25:14.589Z,2.73
2019-02-18T15:27:42.959Z,2.60
2019-02-18T15:30:17.515Z,2.77
2019-02-18T15:32:45.859Z,3.73
2019-02-18T15:35:15.452Z,5.63
2019-02-18T15:37:43.752Z,3.67
2019-02-18T15:40:13.660Z,3.53
2019-02-18T15:42:42.783Z,7.00
2019-02-18T15:45:11.474Z,4.43
2019-02-18T15:47:39.783Z,4.57
2019-02-18T15:50:10.754Z,3.07
2019-02-18T15:52:39.049Z,4.60
2019-02-18T15:55:08.438Z,4.63
2019-02-18T15:57:37.138Z,3.57
2019-02-18T16:00:11.579Z,4.10
2019-02-18T16:02:39.874Z,5.47
2019-02-18T16:05:08.587Z,3.83
2019-02-18T16:07:36.909Z,6.37
2019-02-18T16:10:07.638Z,5.43
2019-02-18T16:12:36.191Z,4.53
2019-02-18T16:15:07.444Z,6.43
2019-02-18T16:17:35.785Z,4.93
2019-02-18T16:20:07.680Z,7.83
2019-02-18T16:22:35.964Z,5.83
2019-02-18T16:25:06.902Z,3.83
2019-02-18T16:27:35.194Z,6.77
2019-02-18T16:30:04.573Z,5.23
2019-02-18T16:32:32.862Z,5.60
2019-02-18T16:35:01.167Z,5.53
2019-02-18T16:37:29.860Z,4.63
2019-02-18T16:39:58.798Z,4.50
2019-02-18T16:42:27.099Z,4.17
2019-02-18T16:44:55.782Z,8.47
2019-02-18T16:47:24.140Z,4.40
2019-02-18T16:49:52.846Z,4.87
2019-02-18T16:52:21.167Z,6.13
2019-02-18T16:54:49.490Z,8.03
2019-02-18T16:57:17.774Z,8.53
2019-02-18T16:59:46.053Z,5.17
2019-02-18T17:02:14.369Z,4.73
2019-02-18T17:04:43.052Z,7.73
2019-02-18T17:07:11.700Z,5.73
2019-02-18T17:09:40.292Z,6.87
2019-02-18T17:12:08.582Z,5.20
2019-02-18T17:14:36.870Z,5.93
2019-02-18T17:17:05.169Z,3.97
2019-02-18T17:19:33.460Z,7.60
2019-02-18T17:22:01.844Z,4.57
2019-02-18T17:24:30.409Z,7.70
2019-02-18T17:26:58.710Z,3.93
2019-02-18T17:29:27.240Z,5.30
2019-02-18T17:31:55.635Z,7.77
2019-02-18T17:34:23.924Z,6.90
2019-02-18T17:36:52.753Z,6.33
2019-02-18T17:39:21.044Z,5.47
2019-02-18T17:41:49.348Z,8.20
2019-02-18T17:44:20.126Z,6.87
2019-02-18T17:46:47.635Z,6.30
2019-02-18T17:49:15.953Z,5.27
2019-02-18T17:51:44.231Z,8.87
2019-02-18T17:54:12.807Z,7.57
2019-02-18T17:56:41.534Z,7.80
2019-02-18T17:59:09.838Z,7.23
2019-02-18T18:01:38.119Z,4.43
2019-02-18T18:04:06.753Z,6.70
2019-02-18T18:06:35.050Z,4.20
2019-02-18T18:09:04.228Z,5.47
2019-02-18T18:11:32.507Z,6.87
2019-02-18T18:14:00.805Z,8.37
2019-02-18T18:16:29.111Z,4.17
2019-02-18T18:18:57.408Z,5.37
2019-02-18T18:21:25.699Z,7.07
2019-02-18T18:23:55.904Z,7.03
2019-02-18T18:26:24.462Z,4.67
2019-02-18T18:28:53.407Z,5.87
2019-02-18T18:31:21.704Z,8.77
2019-02-18T18:33:49.992Z,5.47
2019-02-18T18:36:18.275Z,5.73
2019-02-18T18:38:46.564Z,6.47
2019-02-18T18:41:15.112Z,9.00
2019-02-18T18:43:43.662Z,6.77
2019-02-18T18:46:11.958Z,7.17
2019-02-18T18:48:40.251Z,7.83
2019-02-18T18:51:08.540Z,4.90
2019-02-18T18:53:36.826Z,5.47
2019-02-18T18:56:05.433Z,5.77
2019-02-18T18:58:33.848Z,8.43
2019-02-18T19:01:02.108Z,10.43
2019-02-18T19:03:30.411Z,11.27
2019-02-18T19:05:58.961Z,9.10
2019-02-18T19:08:27.248Z,9.60
2019-02-18T19:10:55.553Z,6.20
2019-02-18T19:13:24.015Z,9.60
2019-02-18T19:15:52.322Z,7.20
2019-02-18T19:18:20.599Z,15.03
2019-02-18T19:20:49.276Z,16.47
2019-02-18T19:23:17.626Z,7.57
2019-02-18T19:25:45.906Z,6.90
2019-02-18T19:28:14.384Z,6.00
2019-02-18T19:30:42.663Z,6.83
2019-02-18T19:33:10.955Z,7.00
2019-02-18T19:35:39.247Z,7.00
2019-02-18T19:38:07.558Z,7.30
2019-02-18T19:40:35.840Z,9.60
2019-02-18T19:43:04.505Z,10.27
2019-02-18T19:45:32.782Z,8.50
2019-02-18T19:48:01.330Z,9.40
2019-02-18T19:50:29.612Z,8.73
2019-02-18T19:52:57.907Z,9.87
2019-02-18T19:55:26.187Z,14.53
2019-02-18T19:57:54.490Z,12.00
2019-02-18T20:00:22.776Z,10.83
2019-02-18T20:02:51.133Z,9.07
2019-02-18T20:05:19.443Z,12.87
2019-02-18T20:07:48.049Z,9.00
2019-02-18T20:10:16.417Z,13.00
2019-02-18T20:12:44.696Z,8.03
2019-02-18T20:15:14.774Z,12.20
2019-02-18T20:17:43.062Z,9.10
2019-02-18T20:20:13.572Z,11.80
2019-02-18T20:22:42.336Z,10.37
2019-02-18T20:25:10.698Z,7.07
2019-02-18T20:27:39.389Z,11.50
2019-02-18T20:30:18.098Z,14.47
2019-02-18T20:32:46.380Z,16.57
2019-02-18T20:35:14.774Z,15.23
2019-02-18T20:37:43.363Z,12.67
2019-02-18T20:40:12.853Z,10.90
2019-02-18T20:42:41.422Z,13.00
2019-02-18T20:45:11.854Z,12.10
2019-02-18T20:47:40.126Z,9.07
2019-02-18T20:50:10.663Z,12.23
2019-02-18T20:52:39.266Z,10.03
2019-02-18T20:55:10.160Z,9.77
2019-02-18T20:57:40.850Z,8.57
2019-02-18T21:00:20.157Z,10.17
2019-02-18T21:02:48.569Z,11.07
2019-02-18T21:05:16.853Z,13.43
2019-02-18T21:07:45.221Z,8.90
2019-02-18T21:10:21.529Z,10.40
2019-02-18T21:12:50.234Z,9.27
2019-02-18T21:15:18.516Z,10.07
2019-02-18T21:17:46.809Z,7.37
2019-02-18T21:20:15.475Z,9.87
2019-02-18T21:22:44.160Z,12.60
2019-02-18T21:25:12.832Z,9.43
2019-02-18T21:27:41.076Z,8.87
2019-02-18T21:30:12.294Z,9.23
2019-02-18T21:32:40.584Z,10.20
2019-02-18T21:35:08.930Z,8.47
2019-02-18T21:37:37.220Z,9.13
2019-02-18T21:40:08.038Z,10.30
2019-02-18T21:42:36.619Z,9.67
2019-02-18T21:45:07.444Z,9.43
2019-02-18T21:47:35.728Z,8.37
2019-02-18T21:50:05.645Z,8.30
2019-02-18T21:52:33.928Z,8.30
2019-02-18T21:55:02.463Z,8.63
2019-02-18T21:57:30.760Z,8.50
2019-02-18T21:59:59.372Z,10.90
2019-02-18T22:02:27.663Z,7.53
2019-02-18T22:04:56.229Z,11.13
2019-02-18T22:07:24.538Z,12.67
2019-02-18T22:09:53.105Z,11.97
2019-02-18T22:12:21.408Z,14.07
2019-02-18T22:14:49.688Z,15.63
2019-02-18T22:17:18.328Z,14.33
2019-02-18T22:19:46.608Z,20.53
2019-02-18T22:22:14.905Z,13.13
2019-02-18T22:24:43.176Z,13.27
2019-02-18T22:27:11.753Z,10.93
2019-02-18T22:29:40.031Z,11.10
2019-02-18T22:32:08.352Z,12.20
2019-02-18T22:34:36.875Z,10.47
2019-02-18T22:37:05.268Z,11.63
2019-02-18T22:39:34.753Z,13.23
2019-02-18T22:42:03.026Z,10.90
2019-02-18T22:44:31.495Z,10.27
2019-02-18T22:46:59.771Z,13.17
2019-02-18T22:49:28.071Z,15.10
2019-02-18T22:51:56.353Z,15.63
2019-02-18T22:54:24.648Z,13.80
2019-02-18T22:56:52.931Z,13.10
2019-02-18T22:59:21.223Z,16.90
2019-02-18T23:01:49.850Z,14.17
2019-02-18T23:04:18.391Z,14.37
2019-02-18T23:06:46.926Z,20.13
2019-02-18T23:09:15.797Z,18.93
2019-02-18T23:11:44.507Z,15.70
2019-02-18T23:14:12.789Z,17.03
2019-02-18T23:16:41.093Z,19.93
2019-02-18T23:19:09.652Z,19.67
2019-02-18T23:21:37.940Z,18.50
2019-02-18T23:24:06.233Z,16.13
2019-02-18T23:26:34.531Z,17.23
2019-02-18T23:29:02.810Z,21.77
2019-02-18T23:31:31.103Z,16.03
2019-02-18T23:33:59.713Z,19.33
2019-02-18T23:36:28.012Z,21.00
2019-02-18T23:38:56.297Z,18.53
2019-02-18T23:41:24.589Z,24.43
2019-02-18T23:43:52.871Z,16.60
2019-02-18T23:46:21.174Z,17.83
2019-02-18T23:48:49.778Z,16.37
2019-02-18T23:51:18.064Z,15.40
2019-02-18T23:53:46.633Z,14.27
2019-02-18T23:56:14.908Z,12.03
2019-02-18T23:58:43.210Z,15.17
